Ana Sayfa
METAR-TAF:

METAR-TAF

Havaalanları :

Jim Kelly Field

Lexington, Nebraska, Amerika Birleşik Devletleri

Enlem: 40-47-28N, Boylam: 099-46-38W, yükseklik: 736 m

Güncel hava durumu gözlemi

Rapor saat 04:15 UTC de 34 dakika önce yapıldı.
Rüzgar kuzey/kuzeydoğudan 21 kt ve 26 kt'a kadar ani rüzgarlar
Sıcaklık 9°C
Nem 76%
Basınç 1015 hPa
Görüş mesafesi: 16.1 km
Açık gökyüzü

METAR: KLXN 180415Z AUTO 03021G26KT 10SM CLR 09/05 A2997 RMK AO2 LTG DSNT NE AND W T00870050

Saat: 23:49 (04:49 UTC)


TAF: eksik

4.000'den fazla havaalanı için hava durumu gözlemleri ve tahminleri (METAR ve TAF raporları).

Kullanılabilir istasyonlar harita üzerinde sarı ve kırmızı noktalarla gösterilir.

İstasyonun adını görmek için fareyi noktanın üzerinde gezdirin.

Sonrasında hava gözlem ve tahminlerini görmek için tıklayın.

Haritayı değiştirmek için: yaklaştırmak için siyah artı işaretli yeşil düğmeye ve uzaklaştırmak için de eksi işaretli düğmeye hızla tıklayın; bitişik haritalar için yeşil okları kullanın.


METAR-TAF: